Time;durP1;ratioP1;P1;durP2;ratioP2;P2;SDS_P1;SDS_P2;PMS_P1;PMS_P2;Temp;Humidity;BMP_temperature;BMP_pressure;BME280_temperature;BME280_humidity;BME280_pressure;Samples;Min_cycle;Max_cycle;Signal;HPM_P1;HPM_P2
2022/08/18 00:01:23;;;;;;;;;21.25;17.25;;;;;23.31;54.01;100656.13;5071007;27;45579;-56
2022/08/18 00:03:49;;;;;;;;;22.00;19.75;;;;;23.30;54.25;100650.91;5069239;27;45433;-57
2022/08/18 00:06:16;;;;;;;;;18.75;16.50;;;;;23.31;54.23;100653.44;5075531;27;46213;-57
2022/08/18 00:08:41;;;;;;;;;19.75;17.75;;;;;23.31;54.32;100652.59;5080842;27;45373;-58
2022/08/18 00:11:07;;;;;;;;;22.75;18.50;;;;;23.31;54.25;100655.28;5071712;27;65434;-57
2022/08/18 00:13:33;;;;;;;;;19.50;14.75;;;;;23.27;54.57;100654.69;5078508;27;73185;-58
2022/08/18 00:15:58;;;;;;;;;23.25;19.50;;;;;23.26;54.51;100657.47;5076494;27;46292;-57
2022/08/18 00:18:24;;;;;;;;;25.25;20.50;;;;;23.23;54.58;100650.56;5066347;28;51845;-57
2022/08/18 00:20:49;;;;;;;;;21.00;19.00;;;;;23.24;54.60;100656.75;5072560;27;45228;-57
2022/08/18 00:23:15;;;;;;;;;21.50;17.50;;;;;23.22;55.04;100656.03;5081772;27;45992;-57
2022/08/18 00:25:40;;;;;;;;;22.00;17.75;;;;;23.20;55.38;100652.66;5067459;27;45579;-57
2022/08/18 00:28:06;;;;;;;;;13.50;13.50;;;;;23.20;55.31;100649.97;5074405;27;45359;-57
2022/08/18 00:30:31;;;;;;;;;21.25;18.50;;;;;23.21;55.17;100651.66;5080328;27;45515;-56
2022/08/18 00:32:58;;;;;;;;;20.00;19.00;;;;;23.21;54.85;100649.00;5075390;28;45438;-56
2022/08/18 00:35:33;;;;;;;;;22.25;18.50;;;;;23.21;55.38;100655.16;5072629;27;46515;-57
2022/08/18 00:38:02;;;;;;;;;20.50;19.00;;;;;23.23;55.40;100647.03;5070305;27;45406;-57
2022/08/18 00:40:31;;;;;;;;;22.50;18.50;;;;;23.24;55.35;100646.06;5072477;28;45396;-56
2022/08/18 00:43:00;;;;;;;;;23.00;21.00;;;;;23.24;55.47;100646.91;5075367;27;45265;-57
2022/08/18 00:45:29;;;;;;;;;23.00;17.75;;;;;23.26;55.53;100654.81;5065931;28;45306;-56
2022/08/18 00:47:54;;;;;;;;;22.25;17.25;;;;;23.27;55.04;100643.16;5080148;27;45873;-57
2022/08/18 00:50:24;;;;;;;;;22.50;18.00;;;;;23.27;55.47;100660.03;5073318;27;49830;-56
2022/08/18 00:52:59;;;;;;;;;16.50;16.25;;;;;23.24;55.48;100657.59;5065543;28;45520;-57
2022/08/18 00:55:28;;;;;;;;;21.25;17.75;;;;;23.26;55.54;100652.13;5065609;28;46223;-57
2022/08/18 00:58:00;;;;;;;;;15.00;14.25;;;;;23.26;55.31;100666.31;5077888;27;45431;-56
2022/08/18 01:00:26;;;;;;;;;14.50;14.50;;;;;23.27;55.09;100659.19;5078386;28;45516;-56
2022/08/18 01:02:54;;;;;;;;;17.00;14.50;;;;;23.25;55.27;100661.97;5075621;28;45342;-56
2022/08/18 01:05:34;;;;;;;;;16.25;15.25;;;;;23.23;55.46;100665.72;5073756;28;46648;-54
2022/08/18 01:07:59;;;;;;;;;21.00;15.25;;;;;23.24;55.24;100659.44;5066764;28;45374;-55
2022/08/18 01:10:25;;;;;;;;;16.00;13.50;;;;;23.23;55.32;100655.03;5073573;28;45378;-56
2022/08/18 01:12:54;;;;;;;;;18.25;13.25;;;;;23.22;55.61;100656.88;5079752;27;45552;-55
2022/08/18 01:15:21;;;;;;;;;12.00;12.00;;;;;23.22;55.71;100659.53;5070581;28;46386;-56
2022/08/18 01:24:01;;;;;;;;;14.50;12.25;;;;;23.21;55.64;100659.66;5080922;27;45306;-55
2022/08/18 01:26:29;;;;;;;;;17.75;17.50;;;;;23.20;55.29;100653.50;5069846;28;45460;-56
2022/08/18 01:28:54;;;;;;;;;16.25;16.00;;;;;23.18;55.98;100663.44;5065972;27;45181;-55
2022/08/18 01:31:29;;;;;;;;;17.00;15.75;;;;;23.17;55.80;100664.41;5069953;28;45473;-55
2022/08/18 01:33:56;;;;;;;;;18.50;15.25;;;;;23.16;55.53;100667.19;5070084;27;45609;-55
2022/08/18 01:36:22;;;;;;;;;15.75;15.00;;;;;23.13;55.91;100655.81;5079511;27;45425;-55
2022/08/18 01:38:50;;;;;;;;;20.25;18.00;;;;;23.09;56.29;100662.38;5071054;27;45254;-54
2022/08/18 01:41:17;;;;;;;;;21.00;19.00;;;;;23.06;56.20;100661.78;5059767;28;45268;-54
2022/08/18 01:43:45;;;;;;;;;20.25;17.75;;;;;;;;5073463;28;45328;-56
2022/08/18 01:46:11;;;;;;;;;20.75;17.75;;;;;23.03;56.08;100659.31;5068169;27;45453;-55
2022/08/18 01:48:36;;;;;;;;;17.00;15.00;;;;;23.03;55.61;100661.97;5071397;28;45257;-55
2022/08/18 01:51:04;;;;;;;;;16.25;15.50;;;;;23.02;55.41;100658.47;5078217;27;62420;-56
2022/08/18 01:53:30;;;;;;;;;15.00;13.25;;;;;23.01;55.68;100661.25;5079234;27;45331;-56
2022/08/18 01:55:56;;;;;;;;;18.50;16.50;;;;;23.00;55.64;100665.75;5078762;27;46027;-56
2022/08/18 01:58:26;;;;;;;;;19.25;18.00;;;;;22.98;55.78;100664.16;5078513;27;45405;-56
2022/08/18 02:00:52;;;;;;;;;20.75;20.00;;;;;22.99;55.84;100673.88;5092112;27;45310;-56
2022/08/18 02:03:17;;;;;;;;;21.00;16.75;;;;;22.98;55.82;100680.19;5070055;28;45444;-56
2022/08/18 02:05:46;;;;;;;;;20.00;16.75;;;;;22.98;55.86;100677.50;5073128;27;45434;-56
2022/08/18 02:08:11;;;;;;;;;23.75;16.50;;;;;22.97;55.31;100679.34;5081323;27;45910;-56
2022/08/18 02:10:37;;;;;;;;;16.50;12.75;;;;;22.93;55.60;100675.22;5080078;28;45329;-55
2022/08/18 02:13:03;;;;;;;;;18.75;14.25;;;;;22.86;56.23;100680.22;5071259;28;45524;-56
2022/08/18 02:15:29;;;;;;;;;18.00;15.25;;;;;22.78;56.09;100679.97;5070406;27;46043;-56
2022/08/18 02:17:54;;;;;;;;;15.25;12.25;;;;;22.69;55.64;100678.03;5078370;27;45406;-55
2022/08/18 02:20:19;;;;;;;;;17.50;15.25;;;;;22.58;55.93;100684.19;5078124;27;66660;-56
2022/08/18 02:22:46;;;;;;;;;15.50;12.75;;;;;22.51;55.43;100683.81;5079238;27;62826;-56
2022/08/18 02:25:12;;;;;;;;;16.75;14.50;;;;;22.44;55.64;100695.09;5070576;27;45576;-56
2022/08/18 02:27:38;;;;;;;;;13.50;12.00;;;;;22.33;56.12;100699.44;5087584;27;45169;-55
2022/08/18 02:30:07;;;;;;;;;18.25;13.50;;;;;22.23;56.29;100687.75;5068969;27;45870;-56
2022/08/18 02:32:32;;;;;;;;;18.00;15.75;;;;;22.18;56.24;100701.41;5065699;28;45485;-55
2022/08/18 02:34:58;;;;;;;;;17.50;15.50;;;;;22.15;56.61;100696.34;5066464;27;46268;-55
2022/08/18 02:37:23;;;;;;;;;18.00;16.25;;;;;22.10;56.85;100698.50;5071669;27;45251;-55
2022/08/18 02:39:48;;;;;;;;;16.00;14.00;;;;;22.04;56.82;100688.31;5078255;28;45334;-55
2022/08/18 02:42:14;;;;;;;;;18.50;17.25;;;;;22.00;57.02;100693.00;5070990;27;62204;-55
2022/08/18 02:44:39;;;;;;;;;16.00;14.00;;;;;21.94;56.63;100685.50;5076627;28;45976;-55
2022/08/18 02:47:05;;;;;;;;;19.00;14.75;;;;;21.90;56.83;100686.72;5071554;27;45268;-54
2022/08/18 02:49:30;;;;;;;;;18.75;15.75;;;;;21.84;57.43;100681.00;5074484;28;69453;-56
2022/08/18 02:51:56;;;;;;;;;16.75;16.25;;;;;21.74;57.71;100676.34;5064234;28;45509;-56
2022/08/18 02:54:22;;;;;;;;;17.00;15.00;;;;;21.65;57.50;100679.69;5068513;28;45422;-56
2022/08/18 02:56:50;;;;;;;;;19.75;17.75;;;;;21.60;58.01;100680.03;5078209;27;45298;-56
2022/08/18 02:59:18;;;;;;;;;19.75;16.25;;;;;21.58;57.27;100668.66;5073790;27;45343;-56
2022/08/18 03:01:47;;;;;;;;;16.50;14.50;;;;;21.56;57.41;100667.91;5068649;28;45476;-55
2022/08/18 03:04:15;;;;;;;;;17.00;15.00;;;;;21.56;57.69;100675.88;5077504;27;46094;-57
2022/08/18 03:06:41;;;;;;;;;16.25;14.75;;;;;21.55;57.62;100678.69;5069084;27;45327;-56
2022/08/18 03:09:10;;;;;;;;;15.75;14.00;;;;;21.54;58.02;100674.31;5068312;27;45456;-56
2022/08/18 03:11:36;;;;;;;;;19.75;15.75;;;;;21.54;58.07;100669.84;5082625;27;45661;-57
2022/08/18 03:14:04;;;;;;;;;19.25;15.75;;;;;21.53;58.12;100667.28;5077956;28;46303;-56
2022/08/18 03:16:31;;;;;;;;;22.75;16.00;;;;;21.53;57.86;100660.16;5078853;27;45929;-54
2022/08/18 03:18:57;;;;;;;;;20.00;18.75;;;;;21.54;57.70;100656.53;5078670;27;45350;-56
2022/08/18 03:21:24;;;;;;;;;15.25;14.75;;;;;21.55;58.33;100660.91;5075701;27;45309;-55
2022/08/18 03:23:51;;;;;;;;;17.00;16.25;;;;;21.53;57.68;100662.81;5072993;27;47065;-56
2022/08/18 03:26:18;;;;;;;;;17.50;14.00;;;;;21.55;58.23;100660.91;5073538;28;45453;-56
2022/08/18 03:28:46;;;;;;;;;17.50;15.25;;;;;21.56;58.16;100657.25;5099206;27;45557;-57
2022/08/18 03:31:16;;;;;;;;;17.25;15.75;;;;;21.55;58.27;100660.91;5082348;27;45251;-56
2022/08/18 03:33:42;;;;;;;;;18.50;16.25;;;;;21.53;58.19;100660.16;5070739;28;45417;-56
2022/08/18 03:36:11;;;;;;;;;19.75;15.00;;;;;21.53;58.04;100664.63;5078920;27;45470;-53
2022/08/18 03:38:37;;;;;;;;;19.75;17.25;;;;;21.53;58.20;100664.63;5072403;27;45321;-56
2022/08/18 03:41:02;;;;;;;;;18.50;16.25;;;;;21.53;57.99;100665.50;5079116;27;45298;-56
2022/08/18 03:43:30;;;;;;;;;21.25;15.50;;;;;21.51;58.01;100658.56;5081678;27;45304;-57
2022/08/18 03:46:03;;;;;;;;;18.25;16.50;;;;;21.50;58.25;100662.22;5080455;27;45262;-57
2022/08/18 03:48:28;;;;;;;;;19.00;16.25;;;;;21.52;58.25;100660.28;5080490;27;45419;-56
2022/08/18 03:50:54;;;;;;;;;21.00;17.25;;;;;21.50;58.26;100656.88;5077095;27;45351;-56
2022/08/18 03:53:19;;;;;;;;;15.50;15.50;;;;;21.52;58.11;100660.28;5079642;27;45218;-56
2022/08/18 03:55:45;;;;;;;;;18.75;16.50;;;;;21.49;58.19;100652.50;5079011;27;64202;-57
2022/08/18 03:58:13;;;;;;;;;17.25;17.00;;;;;21.48;57.94;100658.78;5064694;27;57728;-56
2022/08/18 04:00:40;;;;;;;;;19.25;16.25;;;;;21.47;58.00;100649.94;5064927;27;45549;-56
2022/08/18 04:03:06;;;;;;;;;17.75;15.50;;;;;21.48;58.59;100658.78;5075945;27;46478;-58
2022/08/18 04:05:33;;;;;;;;;20.75;14.50;;;;;21.47;58.27;100659.75;5077329;27;45939;-54
2022/08/18 04:08:01;;;;;;;;;18.50;15.25;;;;;21.43;58.25;100654.63;5065062;27;45310;-55
2022/08/18 04:10:26;;;;;;;;;21.75;17.50;;;;;21.46;57.95;100658.91;5068653;28;45418;-55
2022/08/18 04:12:52;;;;;;;;;18.75;18.25;;;;;21.46;58.00;100658.91;5072495;27;46129;-55
2022/08/18 04:15:17;;;;;;;;;21.25;17.25;;;;;21.45;58.45;100651.84;5080949;27;60887;-55
2022/08/18 04:17:44;;;;;;;;;20.25;17.00;;;;;21.41;58.46;100648.56;5061967;28;67774;-56
2022/08/18 04:20:11;;;;;;;;;20.75;20.00;;;;;21.43;58.16;100651.13;5081552;27;45537;-55
2022/08/18 04:22:37;;;;;;;;;17.50;17.25;;;;;21.40;58.37;100648.69;5081695;27;46952;-55
2022/08/18 04:25:03;;;;;;;;;18.75;18.50;;;;;21.43;57.84;100651.97;5081692;27;45410;-55
2022/08/18 04:27:28;;;;;;;;;23.25;19.75;;;;;21.43;58.44;100643.97;5077154;27;45372;-54
2022/08/18 04:29:55;;;;;;;;;20.50;18.75;;;;;21.35;58.21;100638.34;5071589;27;45533;-56
2022/08/18 04:32:21;;;;;;;;;21.75;19.00;;;;;21.39;58.49;100655.81;5069337;27;46995;-55
2022/08/18 04:34:46;;;;;;;;;23.75;18.75;;;;;21.37;58.33;100652.44;5072235;28;45312;-56
2022/08/18 04:37:14;;;;;;;;;18.50;17.25;;;;;21.38;57.96;100658.59;5081816;27;45466;-57
2022/08/18 04:39:39;;;;;;;;;20.75;19.00;;;;;21.38;58.46;100664.75;5090806;27;45261;-57
2022/08/18 04:42:05;;;;;;;;;23.75;20.75;;;;;21.41;58.09;100672.53;5066105;27;46289;-57
2022/08/18 04:44:30;;;;;;;;;22.25;21.25;;;;;21.42;58.10;100663.59;5067885;28;45265;-56
2022/08/18 04:46:55;;;;;;;;;22.25;20.00;;;;;21.42;58.64;100665.38;5075001;27;45528;-56
2022/08/18 04:49:24;;;;;;;;;24.75;21.75;;;;;21.37;58.22;100668.41;5077784;28;65935;-57
2022/08/18 04:54:37;;;;;;;;;26.00;23.00;;;;;21.38;58.57;100671.91;5076012;28;45292;-56
2022/08/18 04:57:11;;;;;;;;;27.25;23.00;;;;;21.36;58.74;100674.69;5073512;27;45324;-56
2022/08/18 04:59:39;;;;;;;;;28.75;23.75;;;;;21.36;58.68;100676.50;5060728;28;45244;-57
2022/08/18 05:02:06;;;;;;;;;26.50;23.00;;;;;21.38;58.78;100686.06;5063246;28;46214;-56
2022/08/18 05:04:33;;;;;;;;;23.50;22.25;;;;;21.39;58.29;100681.59;5070068;27;45805;-54
2022/08/18 05:06:59;;;;;;;;;30.00;23.00;;;;;21.39;58.82;100684.28;5080762;27;45554;-56
2022/08/18 05:09:24;;;;;;;;;33.25;25.75;;;;;21.39;58.33;100687.78;5077352;27;45402;-54
2022/08/18 05:11:50;;;;;;;;;31.50;24.75;;;;;21.39;58.68;100689.59;5071826;27;45607;-55
2022/08/18 05:14:16;;;;;;;;;28.75;24.00;;;;;21.39;58.80;100692.25;5078890;27;45307;-56
2022/08/18 05:16:41;;;;;;;;;36.00;30.50;;;;;21.36;58.61;100706.63;5080729;27;45271;-53
2022/08/18 05:19:08;;;;;;;;;34.50;30.00;;;;;21.34;58.70;100697.91;5076899;27;49606;-56
2022/08/18 05:21:35;;;;;;;;;31.00;28.75;;;;;21.36;58.83;100706.63;5075174;28;47567;-55
2022/08/18 05:24:01;;;;;;;;;37.00;28.25;;;;;21.37;59.23;100707.47;5078703;27;45314;-56
2022/08/18 05:26:27;;;;;;;;;34.75;29.50;;;;;21.35;58.95;100707.56;5075715;27;45335;-56
2022/08/18 05:28:53;;;;;;;;;36.00;30.25;;;;;21.35;58.86;100706.72;5074960;27;69461;-56
2022/08/18 05:31:21;;;;;;;;;32.50;29.50;;;;;21.35;59.03;100704.91;5069783;27;45541;-56
2022/08/18 05:33:47;;;;;;;;;30.25;27.00;;;;;21.33;59.60;100706.84;5079138;27;45814;-55
2022/08/18 05:36:45;;;;;;;;;34.25;26.00;;;;;21.29;59.66;100713.34;5089417;27;45452;-55
2022/08/18 05:39:14;;;;;;;;;29.00;27.75;;;;;21.29;59.51;100712.53;5066040;28;45389;-56
2022/08/18 05:41:43;;;;;;;;;29.00;26.25;;;;;21.28;58.95;100716.97;5069507;28;45359;-55
2022/08/18 05:44:13;;;;;;;;;22.75;21.00;;;;;21.28;59.27;100722.28;5073141;28;45292;-53
2022/08/18 05:46:44;;;;;;;;;19.50;17.75;;;;;21.27;59.36;100717.94;5074560;27;45317;-55
2022/08/18 05:49:10;;;;;;;;;16.00;14.00;;;;;21.28;59.12;100719.63;5075689;27;45503;-56
2022/08/18 05:51:42;;;;;;;;;18.75;17.50;;;;;21.25;58.96;100722.53;5085798;27;45389;-56
2022/08/18 05:56:54;;;;;;;;;16.25;14.75;;;;;21.26;58.71;100739.34;5078036;28;45355;-56
2022/08/18 05:59:24;;;;;;;;;20.75;16.75;;;;;21.25;58.56;100738.50;5074205;28;45790;-56
2022/08/18 06:02:02;;;;;;;;;18.00;17.00;;;;;21.23;58.50;100740.44;5060473;28;46111;-56
2022/08/18 06:04:40;;;;;;;;;20.50;19.00;;;;;21.17;58.59;100735.53;5078212;27;45733;-57
2022/08/18 06:07:09;;;;;;;;;22.00;21.25;;;;;21.13;58.85;100740.22;5067454;28;45417;-58
2022/08/18 06:09:43;;;;;;;;;14.75;14.25;;;;;21.12;58.33;100735.00;5064450;27;45409;-56
2022/08/18 06:12:34;;;;;;;;;14.75;14.75;;;;;21.12;58.58;100735.84;5073093;27;46529;-57
2022/08/18 06:15:04;;;;;;;;;21.25;16.25;;;;;21.14;58.47;100733.09;5072985;28;45801;-57
2022/08/18 06:17:38;;;;;;;;;24.75;19.25;;;;;21.18;58.40;100731.94;5068197;27;45292;-57
2022/08/18 06:20:32;;;;;;;;;21.75;18.75;;;;;21.20;58.68;100727.34;5069175;27;45254;-56
2022/08/18 06:22:58;;;;;;;;;23.25;21.00;;;;;21.21;58.35;100731.69;5071983;27;45387;-56
2022/08/18 06:25:44;;;;;;;;;22.67;16.67;;;;;21.20;58.81;100736.16;5086533;27;45529;-56
2022/08/18 06:28:15;;;;;;;;;26.00;21.25;;;;;21.21;58.38;100739.66;5064519;28;45509;-57
2022/08/18 06:30:40;;;;;;;;;27.00;23.75;;;;;21.22;58.75;100744.03;5091395;27;45344;-58
2022/08/18 06:33:10;;;;;;;;;22.33;22.00;;;;;21.23;58.74;100749.25;5073704;28;45462;-55
2022/08/18 06:35:49;;;;;;;;;28.50;24.25;;;;;21.27;58.36;100746.38;5082618;27;45392;-56
2022/08/18 06:38:45;;;;;;;;;28.25;24.25;;;;;21.30;58.65;100747.00;5067533;28;45409;-56
2022/08/18 06:41:17;;;;;;;;;33.50;29.25;;;;;21.31;58.31;100743.38;5068750;28;45820;-57
2022/08/18 06:43:52;;;;;;;;;31.75;26.25;;;;;21.34;58.45;100748.47;5073343;27;45524;-56
2022/08/18 06:46:22;;;;;;;;;30.75;27.00;;;;;21.36;58.14;100746.56;5075153;27;45803;-57
2022/08/18 06:49:02;;;;;;;;;34.50;26.50;;;;;21.40;58.77;100750.69;5071632;28;45331;-56
2022/08/18 06:51:27;;;;;;;;;30.00;25.50;;;;;21.45;58.35;100757.50;5076101;27;45425;-56
2022/08/18 06:54:00;;;;;;;;;30.50;27.00;;;;;21.47;58.57;100763.59;5083047;27;46129;-55
2022/08/18 06:56:42;;;;;;;;;37.75;30.50;;;;;21.47;58.68;100761.78;5077076;28;45736;-57
2022/08/18 06:59:23;;;;;;;;;32.25;27.75;;;;;21.46;58.36;100770.75;5075314;27;45386;-57
2022/08/18 07:02:19;;;;;;;;;35.00;25.75;;;;;21.48;58.65;100770.63;5062761;28;45422;-57
2022/08/18 07:05:04;;;;;;;;;35.75;28.75;;;;;21.51;58.32;100765.06;5071185;27;45451;-56
2022/08/18 07:07:29;;;;;;;;;30.25;27.75;;;;;21.54;58.69;100763.03;5077853;27;45413;-57
2022/08/18 07:09:54;;;;;;;;;34.67;30.67;;;;;21.57;58.76;100775.28;5063301;28;45403;-56
2022/08/18 07:12:23;;;;;;;;;38.00;29.25;;;;;21.57;58.50;100764.66;5066329;28;61675;-56
2022/08/18 07:14:52;;;;;;;;;36.50;29.75;;;;;21.61;58.84;100761.63;5064340;28;46969;-56
2022/08/18 07:17:22;;;;;;;;;34.50;29.00;;;;;21.66;58.67;100760.47;5067913;28;45986;-56
2022/08/18 07:20:09;;;;;;;;;31.75;28.75;;;;;21.73;58.44;100765.22;5094167;27;45370;-56
2022/08/18 07:22:54;;;;;;;;;37.50;29.75;;;;;21.79;58.29;100770.06;5070295;28;45379;-56
2022/08/18 07:25:23;;;;;;;;;39.25;30.75;;;;;21.86;58.48;100764.31;5072500;28;46865;-56
2022/08/18 07:27:50;;;;;;;;;40.00;30.00;;;;;21.91;57.98;100756.81;5060775;28;45841;-56
2022/08/18 07:30:18;;;;;;;;;35.00;28.75;;;;;21.98;58.23;100763.41;5067647;27;45279;-56
2022/08/18 07:32:55;;;;;;;;;39.75;32.00;;;;;22.05;57.91;100761.13;5073657;27;45360;-56
2022/08/18 07:35:27;;;;;;;;;36.75;31.00;;;;;22.11;57.94;100768.66;5075192;28;46007;-56
2022/08/18 07:38:07;;;;;;;;;38.50;32.50;;;;;22.15;57.62;100764.78;5076272;27;45927;-56
2022/08/18 07:41:04;;;;;;;;;32.50;29.25;;;;;22.19;57.78;100766.28;5075963;27;45421;-54
2022/08/18 07:43:51;;;;;;;;;37.25;30.50;;;;;22.23;58.08;100772.22;5092535;27;45586;-56
2022/08/18 07:46:25;;;;;;;;;46.50;33.00;;;;;22.28;58.01;100778.94;5077262;27;45485;-54
2022/08/18 07:48:51;;;;;;;;;44.75;33.75;;;;;22.33;57.33;100776.78;5068672;28;45540;-56
2022/08/18 07:51:42;;;;;;;;;36.75;32.00;;;;;22.41;57.83;100775.34;5063474;28;45563;-58
2022/08/18 07:54:16;;;;;;;;;44.00;33.75;;;;;22.47;57.72;100774.84;5063431;28;45472;-57
2022/08/18 07:57:09;;;;;;;;;43.75;32.00;;;;;22.54;57.54;100782.28;5084893;27;47075;-57
2022/08/18 07:59:49;;;;;;;;;38.00;31.50;;;;;22.62;57.25;100776.34;5072563;28;45938;-56
2022/08/18 08:02:14;;;;;;;;;32.50;31.25;;;;;22.69;57.60;100774.91;5072340;28;45356;-55
2022/08/18 08:04:57;;;;;;;;;47.67;37.67;;;;;22.77;57.09;100779.66;5069633;27;45521;-56
2022/08/18 08:07:30;;;;;;;;;38.25;32.25;;;;;22.84;56.80;100774.66;5080602;27;46237;-55
2022/08/18 08:10:18;;;;;;;;;45.25;37.00;;;;;22.90;56.54;100777.72;5065489;28;45398;-56
2022/08/18 08:12:52;;;;;;;;;47.00;37.50;;;;;22.94;56.56;100768.50;5072483;27;45272;-54
2022/08/18 08:15:29;;;;;;;;;46.00;37.25;;;;;22.98;56.82;100762.91;5076810;27;45293;-57
2022/08/18 08:18:13;;;;;;;;;45.50;35.25;;;;;;;;5087948;27;45450;-55
2022/08/18 08:20:51;;;;;;;;;44.75;34.50;;;;;23.09;56.61;100762.97;5081234;27;45182;-55
2022/08/18 08:23:22;;;;;;;;;44.00;34.75;;;;;23.12;56.26;100758.22;5080669;28;45340;-56
2022/08/18 08:25:49;;;;;;;;;46.75;35.25;;;;;23.17;56.32;100760.53;5081256;27;45254;-57
2022/08/18 08:29:05;;;;;;;;;46.25;35.75;;;;;23.23;56.17;100757.38;5080743;27;45485;-55
2022/08/18 08:31:33;;;;;;;;;36.50;31.50;;;;;23.30;55.96;100750.56;5032368;28;45547;-56
2022/08/18 08:34:06;;;;;;;;;42.50;33.50;;;;;23.36;55.66;100743.03;5013867;28;45486;-55
2022/08/18 08:36:38;;;;;;;;;45.00;35.25;;;;;23.41;55.64;100744.34;5060036;27;45313;-55
2022/08/18 08:39:10;;;;;;;;;36.75;32.50;;;;;23.47;55.00;100749.19;5075405;28;46346;-55
2022/08/18 08:41:44;;;;;;;;;40.00;33.75;;;;;23.49;55.00;100744.56;5064888;28;46087;-55
2022/08/18 08:44:14;;;;;;;;;45.75;34.75;;;;;23.53;55.27;100742.50;5084411;27;45292;-55
2022/08/18 08:46:54;;;;;;;;;43.50;34.50;;;;;23.58;55.26;100742.97;5084320;27;45373;-54
2022/08/18 08:49:44;;;;;;;;;36.75;33.00;;;;;23.66;54.99;100753.88;5074310;28;46446;-55
2022/08/18 08:52:20;;;;;;;;;41.50;35.50;;;;;23.70;54.71;100749.97;5074700;27;45333;-56
2022/08/18 08:54:48;;;;;;;;;47.50;35.75;;;;;23.75;54.86;100762.97;5079213;27;45529;-55
2022/08/18 08:57:15;;;;;;;;;39.00;31.25;;;;;23.80;54.52;100770.63;5069650;28;45523;-55
2022/08/18 08:59:45;;;;;;;;;48.50;34.00;;;;;23.85;54.31;100768.41;5064256;28;46204;-55
2022/08/18 09:02:31;;;;;;;;;37.00;31.25;;;;;23.92;53.96;100768.78;5087020;27;45320;-56
2022/08/18 09:05:05;;;;;;;;;42.25;32.75;;;;;23.97;53.28;100770.06;5070400;28;45319;-55
2022/08/18 09:07:34;;;;;;;;;39.00;31.75;;;;;24.04;53.47;100773.09;5077126;28;45749;-55
2022/08/18 09:10:38;;;;;;;;;39.50;33.50;;;;;24.09;53.36;100778.91;5067929;27;45435;-56
2022/08/18 09:13:04;;;;;;;;;36.00;31.00;;;;;24.15;53.22;100782.88;5072076;27;45825;-55
2022/08/18 09:15:43;;;;;;;;;40.00;31.75;;;;;24.28;52.75;100780.91;5070018;27;45249;-55
2022/08/18 09:18:32;;;;;;;;;36.50;31.00;;;;;24.55;52.98;100784.91;5080611;27;45445;-54
2022/08/18 09:21:04;;;;;;;;;26.75;22.75;;;;;25.05;51.19;100786.88;5069584;27;46172;-54
2022/08/18 09:23:39;;;;;;;;;32.25;27.50;;;;;25.63;50.56;100780.88;5059884;28;45424;-57
2022/08/18 09:26:22;;;;;;;;;30.75;24.50;;;;;26.34;48.55;100783.34;5071810;27;45403;-54
2022/08/18 09:29:23;;;;;;;;;25.75;24.50;;;;;27.04;49.55;100777.69;5066794;28;45223;-55
2022/08/18 09:32:17;;;;;;;;;28.25;24.25;;;;;27.92;46.23;100780.75;5066555;27;45961;-56
2022/08/18 09:34:55;;;;;;;;;29.50;24.75;;;;;28.68;45.14;100784.75;5082647;27;45294;-56
2022/08/18 09:37:28;;;;;;;;;26.75;22.50;;;;;29.54;45.08;100778.44;5064124;28;45427;-57
2022/08/18 09:42:49;;;;;;;;;22.00;21.75;;;;;31.49;39.33;100773.22;5068326;28;45716;-56
2022/08/18 09:45:30;;;;;;;;;23.00;21.25;;;;;32.41;40.14;100777.81;5060969;28;45740;-57
2022/08/18 09:48:22;;;;;;;;;19.50;19.00;;;;;33.35;38.41;100774.59;5066697;27;45331;-57
2022/08/18 09:51:14;;;;;;;;;20.50;19.75;;;;;34.15;36.75;100778.16;5063286;28;45371;-56
2022/08/18 09:53:45;;;;;;;;;18.00;15.00;;;;;34.74;32.98;100772.41;5072852;27;47785;-58
2022/08/18 09:56:12;;;;;;;;;20.00;16.50;;;;;35.22;30.92;100768.91;5076840;27;45915;-58
2022/08/18 09:58:53;;;;;;;;;21.75;18.25;;;;;35.76;31.99;100774.50;5076929;27;45722;-58
2022/08/18 10:01:33;;;;;;;;;17.00;16.25;;;;;36.34;33.89;100765.78;5077524;27;45407;-58
2022/08/18 10:04:13;;;;;;;;;20.75;20.50;;;;;36.96;31.29;100775.31;5079744;27;46233;-58
2022/08/18 10:06:44;;;;;;;;;19.75;16.00;;;;;37.45;31.39;100774.91;5080227;27;45775;-58
2022/08/18 10:09:47;;;;;;;;;19.00;19.00;;;;;37.82;29.63;100773.22;5075458;27;45346;-58
2022/08/18 10:12:55;;;;;;;;;19.50;18.00;;;;;38.25;30.36;100760.72;5063904;27;45516;-58
2022/08/18 10:15:39;;;;;;;;;17.50;15.75;;;;;38.69;26.05;100758.84;5103074;27;47167;-58
2022/08/18 10:18:31;;;;;;;;;19.00;16.25;;;;;38.84;26.61;100745.63;5072602;27;45248;-59
2022/08/18 10:21:17;;;;;;;;;19.50;18.00;;;;;39.04;24.64;100745.41;5071877;28;45495;-59
2022/08/18 10:23:50;;;;;;;;;21.75;18.25;;;;;39.18;27.86;100737.03;5075552;27;45316;-59
2022/08/18 10:26:31;;;;;;;;;19.25;14.25;;;;;39.38;27.94;100731.25;5062397;28;46370;-58
2022/08/18 10:29:00;;;;;;;;;14.50;14.00;;;;;39.55;26.08;100731.47;5077401;27;45236;-59
2022/08/18 10:31:27;;;;;;;;;14.50;13.00;;;;;39.79;24.62;100724.13;5083835;27;45458;-59
2022/08/18 10:33:58;;;;;;;;;12.25;12.25;;;;;40.08;26.30;100729.81;5083757;27;45256;-59
2022/08/18 10:36:36;;;;;;;;;13.25;12.25;;;;;40.36;26.80;100726.38;5065338;28;46306;-59
2022/08/18 10:39:05;;;;;;;;;17.50;16.50;;;;;40.65;26.91;100730.03;5072102;27;45710;-59
2022/08/18 10:41:32;;;;;;;;;15.50;15.50;;;;;40.96;23.33;100719.72;5076880;27;46195;-56
2022/08/18 10:43:59;;;;;;;;;16.25;15.25;;;;;41.09;25.89;100721.34;5070019;28;45323;-57
2022/08/18 10:46:28;;;;;;;;;14.25;13.00;;;;;41.20;24.42;100720.44;5075236;27;46102;-57
2022/08/18 10:49:08;;;;;;;;;15.50;13.75;;;;;41.36;26.03;100713.34;5076749;28;45806;-57
2022/08/18 10:52:00;;;;;;;;;19.50;18.75;;;;;41.50;21.70;100717.44;5071533;27;45287;-58
2022/08/18 10:54:27;;;;;;;;;19.00;18.00;;;;;41.54;23.92;100721.38;5066775;28;45220;-57
2022/08/18 10:56:56;;;;;;;;;16.25;14.25;;;;;41.58;24.85;100712.63;5077726;27;47405;-58
2022/08/18 10:59:33;;;;;;;;;19.75;15.25;;;;;41.25;22.33;100706.84;5075070;28;45475;-58
2022/08/18 11:02:10;;;;;;;;;12.75;11.75;;;;;40.52;22.79;100708.34;5089071;27;45402;-58
2022/08/18 11:04:46;;;;;;;;;14.50;14.00;;;;;39.53;23.75;100708.97;5071323;28;45248;-58
2022/08/18 11:07:24;;;;;;;;;16.75;15.00;;;;;38.54;23.01;100710.78;5082758;27;46193;-57
2022/08/18 11:09:52;;;;;;;;;14.75;14.75;;;;;37.56;24.27;100716.91;5062498;28;45701;-57
2022/08/18 11:12:54;;;;;;;;;16.00;13.25;;;;;36.70;26.52;100713.50;5068134;27;45370;-58
2022/08/18 11:15:51;;;;;;;;;12.00;11.00;;;;;35.85;26.47;100707.91;5077420;27;45411;-57
2022/08/18 11:18:36;;;;;;;;;10.00;9.00;;;;;35.14;26.67;100709.19;5064290;28;45343;-57
2022/08/18 11:21:35;;;;;;;;;14.75;13.50;;;;;34.31;28.15;100704.53;5076589;27;45404;-57
2022/08/18 11:24:30;;;;;;;;;16.25;14.50;;;;;33.70;28.68;100705.06;5068686;28;45344;-57
2022/08/18 11:27:02;;;;;;;;;14.00;12.50;;;;;33.20;29.53;100704.94;5068753;27;45510;-57
2022/08/18 11:29:32;;;;;;;;;14.00;12.50;;;;;32.89;30.26;100707.88;5074164;28;46360;-57
2022/08/18 11:31:59;;;;;;;;;13.50;12.00;;;;;32.56;29.97;100713.63;5071458;27;45664;-57
2022/08/18 11:34:30;;;;;;;;;15.00;13.00;;;;;32.26;30.58;100719.06;5082114;27;45531;-58
2022/08/18 11:37:02;;;;;;;;;15.25;14.25;;;;;31.96;31.14;100710.81;5070613;27;45276;-58
2022/08/18 11:39:28;;;;;;;;;13.00;11.50;;;;;31.70;31.25;100705.78;5076751;27;45510;-58
2022/08/18 11:41:54;;;;;;;;;14.00;12.00;;;;;31.50;31.54;100701.88;5076956;27;51937;-58
2022/08/18 11:44:23;;;;;;;;;13.00;12.25;;;;;31.34;32.38;100700.94;5078660;27;45563;-58
2022/08/18 11:46:53;;;;;;;;;16.00;13.75;;;;;31.23;32.42;100704.03;5076698;27;45261;-58